18FA weather

CLOSED Tropical Plantation Airport
Palm City, Florida, United States

Public forecast

Using degrees Fahrenheit for public forecast. Weather courtesy of forecast.io.

Closest aviation weather report (METAR) to Tropical Plantation Airport

Closest report is Witham Field, 6.4 nm (11.8 km) NE. Retrieved 2019/10/16 03:55 UTC (32 minutes ago):

KSUA 160355Z AUTO 15004KT 10SM CLR 25/20 A3000 RMK AO2

Closest aviation forecast (TAF) to Tropical Plantation Airport

Closest forecast is Witham Field, 6.4 nm (11.8 km) NE. Retrieved 2019-10-16 00:24 UTC (4 hours ago):

TAF KSUA 152322Z 1600/1624 12005KT P6SM SCT200 FM161500 20010KT P6SM SCT035 BKN250 FM161800 22012KT P6SM BKN040 BKN080